createdAt,value
2017-06-14T00:00:38.581Z,9.73
2017-06-14T00:03:06.032Z,12.03
2017-06-14T00:05:33.496Z,11.90
2017-06-14T00:08:00.940Z,10.83
2017-06-14T00:10:28.396Z,14.37
2017-06-14T00:12:55.865Z,10.40
2017-06-14T00:15:27.036Z,8.07
2017-06-14T00:17:54.492Z,9.90
2017-06-14T00:20:22.724Z,11.63
2017-06-14T00:22:50.198Z,10.93
2017-06-14T00:25:17.653Z,14.00
2017-06-14T00:27:45.125Z,12.53
2017-06-14T00:30:13.352Z,12.73
2017-06-14T00:32:40.827Z,12.00
2017-06-14T00:35:08.289Z,12.57
2017-06-14T00:37:35.762Z,13.33
2017-06-14T00:40:03.216Z,15.87
2017-06-14T00:42:30.680Z,12.57
2017-06-14T00:44:58.133Z,13.63
2017-06-14T00:47:25.614Z,12.90
2017-06-14T00:49:53.836Z,16.50
2017-06-14T00:52:21.284Z,18.53
2017-06-14T00:54:48.748Z,17.33
2017-06-14T00:57:16.204Z,14.23
2017-06-14T00:59:43.678Z,14.87
2017-06-14T01:02:11.133Z,14.77
2017-06-14T01:04:38.597Z,18.80
2017-06-14T01:07:06.061Z,15.50
2017-06-14T01:09:33.534Z,17.07
2017-06-14T01:12:01.753Z,16.83
2017-06-14T01:14:29.241Z,16.27
2017-06-14T01:16:56.693Z,13.90
2017-06-14T01:19:24.153Z,14.10
2017-06-14T01:21:51.625Z,12.33
2017-06-14T01:24:19.073Z,15.10
2017-06-14T01:26:46.539Z,16.73
2017-06-14T01:29:13.993Z,18.10
2017-06-14T01:31:41.453Z,17.87
2017-06-14T01:34:08.909Z,18.73
2017-06-14T01:36:36.380Z,16.00
2017-06-14T01:39:04.605Z,15.63
2017-06-14T01:41:32.073Z,18.40
2017-06-14T01:43:59.529Z,15.67
2017-06-14T01:46:27.005Z,13.83
2017-06-14T01:48:54.462Z,13.53
2017-06-14T01:51:21.919Z,12.87
2017-06-14T01:53:49.381Z,13.57
2017-06-14T01:56:16.828Z,12.90
2017-06-14T01:58:44.289Z,14.10
2017-06-14T02:01:11.751Z,15.03
2017-06-14T02:03:39.217Z,14.73
2017-06-14T02:06:06.677Z,15.37
2017-06-14T02:08:34.908Z,14.90
2017-06-14T02:11:02.356Z,13.40
2017-06-14T02:13:29.833Z,15.27
2017-06-14T02:15:57.285Z,14.27
2017-06-14T02:18:24.770Z,16.97
2017-06-14T02:20:52.221Z,13.97
2017-06-14T02:23:19.690Z,18.70
2017-06-14T02:25:47.144Z,18.77
2017-06-14T02:28:14.615Z,15.33
2017-06-14T02:30:42.841Z,16.60
2017-06-14T02:33:10.313Z,19.57
2017-06-14T02:35:37.764Z,17.60
2017-06-14T02:38:05.220Z,25.20
2017-06-14T02:40:32.685Z,21.93
2017-06-14T02:43:00.136Z,24.27
2017-06-14T02:45:27.597Z,19.80
2017-06-14T02:47:55.057Z,22.50
2017-06-14T02:50:22.529Z,19.23
2017-06-14T02:52:49.976Z,31.33
2017-06-14T02:55:17.441Z,24.23
2017-06-14T02:57:44.900Z,23.13
2017-06-14T03:00:12.381Z,21.27
2017-06-14T03:02:40.612Z,27.33
2017-06-14T03:05:08.069Z,22.57
2017-06-14T03:07:35.529Z,23.37
2017-06-14T03:10:02.990Z,26.10
2017-06-14T03:12:30.449Z,26.40
2017-06-14T03:14:57.896Z,20.43
2017-06-14T03:17:25.369Z,24.07
2017-06-14T03:19:52.818Z,22.43
2017-06-14T03:22:20.285Z,22.67
2017-06-14T03:24:47.728Z,16.67
2017-06-14T03:27:15.197Z,23.80
2017-06-14T03:29:42.657Z,23.83
2017-06-14T03:32:10.117Z,23.20
2017-06-14T03:34:37.572Z,29.90
2017-06-14T03:37:05.033Z,18.87
2017-06-14T03:39:32.504Z,18.97
2017-06-14T03:42:00.724Z,20.57
2017-06-14T03:44:28.198Z,19.33
2017-06-14T03:46:55.652Z,18.37
2017-06-14T03:49:23.124Z,21.03
2017-06-14T03:51:50.588Z,21.07
2017-06-14T03:54:18.056Z,18.17
2017-06-14T03:56:45.504Z,15.77
2017-06-14T03:59:12.968Z,18.27
2017-06-14T04:01:40.417Z,17.00
2017-06-14T04:04:08.702Z,19.63
2017-06-14T04:06:36.157Z,18.97
2017-06-14T04:09:03.640Z,16.13
2017-06-14T04:11:31.113Z,16.30
2017-06-14T04:13:58.888Z,17.37
2017-06-14T04:16:26.357Z,14.53
2017-06-14T04:18:53.805Z,13.53
2017-06-14T04:21:21.277Z,15.93
2017-06-14T04:23:48.729Z,16.33
2017-06-14T04:26:16.200Z,14.63
2017-06-14T04:28:43.654Z,15.20
2017-06-14T04:31:11.133Z,13.40
2017-06-14T04:33:38.593Z,18.10
2017-06-14T04:36:06.056Z,15.37
2017-06-14T04:38:34.275Z,15.43
2017-06-14T04:41:01.749Z,14.27
2017-06-14T04:43:29.216Z,13.73
2017-06-14T04:45:56.672Z,17.47
2017-06-14T04:48:24.151Z,13.67
2017-06-14T04:50:51.611Z,14.53
2017-06-14T04:53:19.074Z,13.53
2017-06-14T04:55:47.304Z,12.27
2017-06-14T04:58:14.773Z,12.40
2017-06-14T05:00:42.241Z,12.70
2017-06-14T05:03:09.704Z,14.50
2017-06-14T05:05:37.167Z,11.70
2017-06-14T05:08:04.712Z,11.10
2017-06-14T05:10:32.167Z,10.37
2017-06-14T05:12:59.605Z,9.93
2017-06-14T05:15:27.193Z,13.30
2017-06-14T05:17:54.641Z,9.70
2017-06-14T05:20:22.211Z,9.37
2017-06-14T05:22:49.661Z,11.97
2017-06-14T05:25:17.117Z,9.00
2017-06-14T05:27:44.680Z,11.50
2017-06-14T05:30:12.141Z,9.73
2017-06-14T05:32:39.701Z,9.73
2017-06-14T05:35:07.158Z,9.70
2017-06-14T05:37:34.626Z,14.27
2017-06-14T05:40:02.109Z,9.80
2017-06-14T05:42:30.334Z,8.77
2017-06-14T05:44:57.781Z,9.57
2017-06-14T05:47:25.253Z,10.33
2017-06-14T05:49:52.725Z,8.33
2017-06-14T05:52:20.189Z,8.57
2017-06-14T05:54:47.628Z,9.03
2017-06-14T05:57:15.089Z,9.27
2017-06-14T05:59:42.541Z,8.40
2017-06-14T06:02:10.105Z,9.73
2017-06-14T06:04:37.664Z,9.83
2017-06-14T06:07:05.132Z,9.80
2017-06-14T06:09:32.576Z,10.87
2017-06-14T06:12:00.026Z,10.40
2017-06-14T06:14:27.589Z,9.40
2017-06-14T06:16:55.146Z,8.87
2017-06-14T06:19:22.610Z,11.53
2017-06-14T06:21:50.056Z,9.10
2017-06-14T06:24:17.512Z,9.63
2017-06-14T06:26:44.968Z,9.80
2017-06-14T06:29:12.532Z,9.40
2017-06-14T06:31:39.984Z,9.47
2017-06-14T06:34:07.553Z,12.53
2017-06-14T06:36:35.013Z,9.53
2017-06-14T06:39:02.493Z,9.00
2017-06-14T06:41:30.740Z,9.00
2017-06-14T06:43:58.189Z,9.03
2017-06-14T06:46:25.652Z,9.77
2017-06-14T06:48:53.222Z,12.43
2017-06-14T06:51:20.684Z,8.67
2017-06-14T06:53:48.133Z,7.70
2017-06-14T06:56:15.595Z,7.03
2017-06-14T06:58:43.032Z,8.20
2017-06-14T07:01:10.489Z,7.57
2017-06-14T07:03:37.948Z,7.10
2017-06-14T07:06:05.415Z,9.87
2017-06-14T07:08:32.852Z,8.17
2017-06-14T07:11:00.315Z,8.03
2017-06-14T07:13:27.765Z,7.10
2017-06-14T07:15:55.212Z,7.10
2017-06-14T07:18:22.670Z,7.20
2017-06-14T07:20:50.118Z,7.77
2017-06-14T07:23:17.580Z,8.57
2017-06-14T07:25:45.024Z,6.17
2017-06-14T07:28:12.497Z,6.40
2017-06-14T07:30:39.950Z,7.10
2017-06-14T07:33:07.417Z,5.37
2017-06-14T07:35:34.865Z,7.60
2017-06-14T07:38:02.333Z,5.20
2017-06-14T07:40:29.781Z,7.40
2017-06-14T07:42:57.230Z,6.57
2017-06-14T07:45:24.697Z,5.83
2017-06-14T07:47:52.149Z,7.17
2017-06-14T07:50:19.615Z,6.10
2017-06-14T07:52:47.065Z,10.00
2017-06-14T07:55:14.521Z,6.80
2017-06-14T07:57:41.965Z,7.30
2017-06-14T08:00:09.433Z,7.40
2017-06-14T08:02:36.886Z,11.70
2017-06-14T08:05:04.357Z,8.67
2017-06-14T08:07:31.820Z,8.20
2017-06-14T08:09:59.277Z,8.60
2017-06-14T08:12:26.725Z,8.87
2017-06-14T08:14:54.185Z,8.97
2017-06-14T08:17:21.632Z,8.90
2017-06-14T08:19:49.089Z,9.83
2017-06-14T08:22:16.554Z,10.63
2017-06-14T08:24:44.008Z,8.50
2017-06-14T08:27:11.461Z,8.50
2017-06-14T08:29:38.920Z,7.63
2017-06-14T08:32:06.380Z,8.50
2017-06-14T08:34:33.820Z,8.20
2017-06-14T08:37:01.369Z,7.90
2017-06-14T08:39:28.812Z,6.53
2017-06-14T08:41:57.045Z,8.00
2017-06-14T08:44:24.492Z,7.77
2017-06-14T08:46:51.950Z,7.30
2017-06-14T08:49:19.401Z,7.50
2017-06-14T08:51:46.861Z,7.77
2017-06-14T08:54:14.324Z,7.30
2017-06-14T08:56:41.793Z,7.77
2017-06-14T08:59:09.233Z,7.13
2017-06-14T09:01:36.684Z,6.80
2017-06-14T09:04:04.141Z,6.03
2017-06-14T09:06:31.592Z,6.77
2017-06-14T09:08:59.057Z,6.93
2017-06-14T09:11:26.493Z,7.33
2017-06-14T09:13:53.961Z,5.70
2017-06-14T09:16:21.404Z,7.90
2017-06-14T09:18:48.865Z,6.70
2017-06-14T09:21:16.318Z,8.17
2017-06-14T09:23:43.776Z,10.63
2017-06-14T09:26:11.225Z,7.20
2017-06-14T09:28:38.685Z,6.60
2017-06-14T09:31:06.131Z,7.10
2017-06-14T09:33:33.612Z,6.33
2017-06-14T09:36:01.061Z,8.43
2017-06-14T09:38:28.509Z,7.03
2017-06-14T09:40:55.970Z,9.90
2017-06-14T09:43:23.416Z,7.13
2017-06-14T09:45:50.873Z,7.50
2017-06-14T09:48:18.317Z,7.63
2017-06-14T09:50:46.544Z,7.00
2017-06-14T09:53:13.993Z,6.90
2017-06-14T09:55:41.457Z,6.17
2017-06-14T09:58:08.905Z,5.83
2017-06-14T10:00:36.385Z,5.90
2017-06-14T10:03:03.833Z,6.43
2017-06-14T10:05:31.277Z,6.70
2017-06-14T10:07:58.737Z,6.60
2017-06-14T10:10:26.195Z,5.77
2017-06-14T10:12:53.665Z,6.03
2017-06-14T10:15:21.102Z,5.53
2017-06-14T10:17:48.562Z,7.77
2017-06-14T10:20:16.017Z,5.83
2017-06-14T10:22:43.472Z,6.27
2017-06-14T10:25:10.924Z,5.10
2017-06-14T10:27:38.381Z,6.10
2017-06-14T10:30:05.826Z,5.23
2017-06-14T10:32:33.289Z,4.70
2017-06-14T10:35:00.728Z,5.03
2017-06-14T10:37:28.217Z,6.77
2017-06-14T10:39:55.670Z,6.57
2017-06-14T10:42:23.441Z,6.17
2017-06-14T10:44:50.896Z,5.10
2017-06-14T10:47:18.349Z,6.90
2017-06-14T10:49:45.805Z,6.57
2017-06-14T10:52:13.253Z,6.70
2017-06-14T10:54:40.732Z,5.27
2017-06-14T10:57:08.175Z,5.53
2017-06-14T10:59:35.647Z,6.43
2017-06-14T11:02:03.092Z,5.90
2017-06-14T11:04:30.542Z,6.37
2017-06-14T11:06:58.005Z,6.27
2017-06-14T11:09:25.464Z,6.67
2017-06-14T11:11:52.941Z,9.63
2017-06-14T11:14:20.390Z,6.97
2017-06-14T11:16:47.857Z,6.30
2017-06-14T11:19:15.313Z,5.87
2017-06-14T11:21:42.770Z,5.43
2017-06-14T11:24:10.217Z,6.63
2017-06-14T11:26:37.677Z,6.57
2017-06-14T11:29:05.138Z,6.03
2017-06-14T11:31:32.605Z,6.50
2017-06-14T11:34:00.058Z,8.40
2017-06-14T11:36:27.517Z,7.57
2017-06-14T11:38:54.968Z,6.93
2017-06-14T11:41:22.409Z,7.30
2017-06-14T11:43:49.868Z,5.83
2017-06-14T11:46:17.325Z,7.37
2017-06-14T11:48:44.798Z,9.30
2017-06-14T11:51:12.246Z,7.70
2017-06-14T11:53:39.737Z,6.53
2017-06-14T11:56:07.182Z,8.97
2017-06-14T11:58:34.641Z,7.77
2017-06-14T12:01:02.088Z,8.33
2017-06-14T12:03:29.545Z,6.97
2017-06-14T12:05:56.998Z,6.57
2017-06-14T12:08:24.449Z,7.87
2017-06-14T12:10:51.896Z,6.10
2017-06-14T12:13:19.352Z,6.93
2017-06-14T12:15:46.805Z,7.20
2017-06-14T12:18:14.264Z,6.37
2017-06-14T12:20:41.712Z,5.93
2017-06-14T12:23:09.169Z,6.57
2017-06-14T12:25:36.612Z,5.70
2017-06-14T12:28:04.061Z,5.87
2017-06-14T12:30:31.525Z,5.57
2017-06-14T12:32:58.969Z,6.00
2017-06-14T12:35:26.434Z,5.60
2017-06-14T12:37:53.869Z,6.00
2017-06-14T12:40:22.102Z,5.60
2017-06-14T12:42:49.548Z,6.00
2017-06-14T12:45:17.015Z,5.60
2017-06-14T12:47:44.469Z,4.90
2017-06-14T12:50:11.933Z,6.00
2017-06-14T12:52:39.399Z,5.93
2017-06-14T12:55:06.849Z,5.60
2017-06-14T12:57:34.298Z,6.63
2017-06-14T13:00:01.754Z,5.90
2017-06-14T13:02:29.207Z,6.00
2017-06-14T13:04:56.664Z,5.70
2017-06-14T13:07:24.130Z,6.03
2017-06-14T13:09:51.586Z,7.13
2017-06-14T13:12:19.029Z,6.03
2017-06-14T13:14:46.485Z,6.50
2017-06-14T13:17:13.937Z,5.47
2017-06-14T13:19:41.396Z,4.47
2017-06-14T13:22:08.846Z,5.80
2017-06-14T13:24:36.317Z,5.30
2017-06-14T13:27:03.764Z,4.57
2017-06-14T13:29:31.228Z,7.90
2017-06-14T13:31:58.685Z,4.43
2017-06-14T13:34:26.137Z,4.97
2017-06-14T13:36:53.605Z,4.57
2017-06-14T13:39:21.064Z,4.60
2017-06-14T13:41:48.542Z,5.97
2017-06-14T13:44:15.989Z,5.00
2017-06-14T13:46:43.448Z,5.23
2017-06-14T13:49:10.908Z,4.60
2017-06-14T13:51:38.361Z,5.03
2017-06-14T13:54:05.810Z,4.93
2017-06-14T13:56:33.275Z,5.63
2017-06-14T13:59:00.713Z,4.30
2017-06-14T14:01:28.176Z,4.97
2017-06-14T14:03:55.626Z,5.13
2017-06-14T14:06:23.089Z,4.70
2017-06-14T14:08:50.541Z,4.77
2017-06-14T14:11:18.017Z,5.83
2017-06-14T14:13:45.465Z,5.00
2017-06-14T14:16:12.933Z,5.50
2017-06-14T14:18:40.372Z,5.20
2017-06-14T14:21:07.833Z,5.23
2017-06-14T14:23:35.289Z,6.10
2017-06-14T14:26:02.741Z,4.50
2017-06-14T14:28:30.192Z,5.57
2017-06-14T14:30:57.640Z,6.17
2017-06-14T14:33:25.111Z,4.40
2017-06-14T14:35:52.562Z,5.20
2017-06-14T14:38:20.020Z,5.10
2017-06-14T14:40:47.473Z,5.93
2017-06-14T14:43:14.947Z,5.33
2017-06-14T14:45:42.389Z,5.40
2017-06-14T14:48:09.844Z,6.23
2017-06-14T14:50:37.300Z,5.20
2017-06-14T14:53:04.753Z,5.90
2017-06-14T14:55:32.214Z,5.03
2017-06-14T14:57:59.676Z,5.50
2017-06-14T15:00:27.136Z,4.67
2017-06-14T15:02:54.585Z,5.60
2017-06-14T15:05:22.050Z,4.33
2017-06-14T15:07:49.505Z,5.00
2017-06-14T15:10:16.980Z,4.63
2017-06-14T15:12:44.432Z,5.13
2017-06-14T15:15:11.873Z,5.17
2017-06-14T15:17:39.330Z,4.47
2017-06-14T15:20:06.779Z,4.47
2017-06-14T15:22:34.240Z,5.13
2017-06-14T15:25:01.699Z,5.43
2017-06-14T15:27:29.156Z,5.13
2017-06-14T15:29:56.619Z,4.47
2017-06-14T15:32:24.077Z,4.90
2017-06-14T15:34:51.525Z,4.60
2017-06-14T15:37:18.985Z,4.47
2017-06-14T15:39:46.444Z,4.67
2017-06-14T15:42:13.886Z,4.67
2017-06-14T15:44:41.357Z,3.97
2017-06-14T15:47:08.810Z,4.27
2017-06-14T15:49:36.268Z,4.60
2017-06-14T15:52:03.719Z,4.80
2017-06-14T15:54:31.181Z,5.60
2017-06-14T15:56:58.645Z,4.90
2017-06-14T15:59:26.117Z,4.90
2017-06-14T16:01:53.565Z,4.43
2017-06-14T16:04:21.017Z,4.90
2017-06-14T16:06:48.472Z,4.50
2017-06-14T16:09:15.925Z,5.50
2017-06-14T16:11:43.380Z,5.00
2017-06-14T16:14:10.825Z,4.87
2017-06-14T16:16:38.293Z,4.50
2017-06-14T16:19:05.730Z,5.53
2017-06-14T16:21:33.221Z,4.30
2017-06-14T16:24:00.665Z,4.50
2017-06-14T16:26:28.109Z,4.47
2017-06-14T16:28:55.584Z,5.00
2017-06-14T16:31:23.036Z,6.70
2017-06-14T16:33:50.505Z,5.10
2017-06-14T16:36:17.952Z,5.07
2017-06-14T16:38:45.408Z,5.00
2017-06-14T16:41:12.862Z,5.30
2017-06-14T16:43:40.322Z,4.00
2017-06-14T16:46:07.764Z,5.10
2017-06-14T16:48:35.234Z,4.80
2017-06-14T16:51:02.680Z,4.30
2017-06-14T16:53:30.125Z,6.47
2017-06-14T16:55:57.580Z,4.60
2017-06-14T16:58:25.120Z,6.00
2017-06-14T17:00:53.345Z,4.03
2017-06-14T17:03:20.802Z,3.87
2017-06-14T17:05:48.267Z,4.00
2017-06-14T17:08:15.709Z,4.80
2017-06-14T17:10:43.164Z,4.70
2017-06-14T17:13:10.612Z,4.30
2017-06-14T17:15:38.078Z,4.60
2017-06-14T17:18:05.546Z,3.77
2017-06-14T17:20:33.028Z,5.53
2017-06-14T17:23:00.480Z,5.00
2017-06-14T17:25:27.924Z,5.33
2017-06-14T17:27:55.389Z,4.17
2017-06-14T17:30:22.837Z,4.70
2017-06-14T17:32:50.294Z,4.60
2017-06-14T17:35:17.745Z,4.47
2017-06-14T17:37:45.207Z,5.43
2017-06-14T17:40:12.649Z,4.53
2017-06-14T17:42:40.104Z,4.57
2017-06-14T17:45:07.557Z,4.40
2017-06-14T17:47:35.024Z,5.73
2017-06-14T17:50:02.477Z,6.10
2017-06-14T17:52:29.948Z,4.80
2017-06-14T17:54:57.389Z,5.00
2017-06-14T17:57:24.833Z,4.93
2017-06-14T17:59:52.289Z,4.50
2017-06-14T18:02:19.733Z,4.77
2017-06-14T18:04:47.199Z,4.50
2017-06-14T18:07:14.640Z,4.60
2017-06-14T18:09:42.867Z,4.33
2017-06-14T18:12:10.312Z,3.70
2017-06-14T18:14:37.768Z,4.17
2017-06-14T18:17:05.223Z,4.00
2017-06-14T18:19:32.678Z,3.77
2017-06-14T18:22:00.129Z,4.40
2017-06-14T18:24:27.588Z,4.60
2017-06-14T18:26:55.032Z,4.60
2017-06-14T18:29:22.498Z,4.67
2017-06-14T18:31:49.940Z,4.10
2017-06-14T18:34:17.393Z,5.30
2017-06-14T18:36:44.849Z,4.57
2017-06-14T18:39:12.296Z,4.87
2017-06-14T18:41:40.539Z,5.10
2017-06-14T18:44:07.976Z,4.93
2017-06-14T18:46:35.437Z,4.90
2017-06-14T18:49:02.888Z,4.80
2017-06-14T18:51:30.348Z,5.60
2017-06-14T18:53:57.795Z,4.90
2017-06-14T18:56:25.297Z,5.03
2017-06-14T18:58:52.753Z,4.83
2017-06-14T19:01:20.196Z,4.40
2017-06-14T19:03:47.652Z,8.30
2017-06-14T19:06:15.101Z,5.50
2017-06-14T19:08:42.573Z,5.03
2017-06-14T19:11:10.013Z,5.50
2017-06-14T19:13:37.478Z,6.70
2017-06-14T19:16:04.918Z,5.27
2017-06-14T19:18:32.376Z,5.93
2017-06-14T19:21:05.508Z,9.70
2017-06-14T19:23:33.745Z,6.00
2017-06-14T19:26:01.192Z,6.87
2017-06-14T19:28:28.659Z,6.67
2017-06-14T19:30:56.096Z,6.13
2017-06-14T19:33:23.563Z,6.23
2017-06-14T19:35:51.009Z,7.33
2017-06-14T19:38:18.469Z,5.87
2017-06-14T19:40:45.921Z,5.90
2017-06-14T19:43:13.628Z,8.90
2017-06-14T19:45:41.092Z,8.00
2017-06-14T19:48:08.546Z,6.93
2017-06-14T19:50:35.997Z,8.17
2017-06-14T19:53:03.449Z,8.20
2017-06-14T19:55:31.000Z,9.73
2017-06-14T19:57:58.445Z,11.77
2017-06-14T20:00:25.916Z,7.13
2017-06-14T20:02:53.365Z,7.83
2017-06-14T20:05:20.813Z,8.33
2017-06-14T20:07:48.277Z,6.67
2017-06-14T20:10:15.733Z,7.80
2017-06-14T20:12:43.205Z,7.90
2017-06-14T20:15:10.655Z,7.70
2017-06-14T20:17:38.111Z,10.53
2017-06-14T20:20:05.589Z,7.73
2017-06-14T20:22:33.113Z,9.73
2017-06-14T20:25:00.556Z,7.57
2017-06-14T20:27:28.008Z,7.27
2017-06-14T20:29:55.500Z,7.90
2017-06-14T20:32:22.962Z,8.07
2017-06-14T20:34:50.529Z,8.60
2017-06-14T20:37:17.973Z,7.30
2017-06-14T20:39:45.433Z,7.47
2017-06-14T20:42:12.883Z,11.10
2017-06-14T20:44:40.459Z,7.87
2017-06-14T20:47:07.944Z,7.80
2017-06-14T20:49:36.172Z,7.33
2017-06-14T20:52:03.636Z,7.77
2017-06-14T20:54:31.092Z,7.77
2017-06-14T20:56:58.549Z,9.63
2017-06-14T20:59:26.008Z,8.43
2017-06-14T21:01:53.641Z,9.03
2017-06-14T21:04:21.073Z,7.53
2017-06-14T21:06:48.541Z,8.40
2017-06-14T21:09:16.002Z,8.60
2017-06-14T21:11:43.496Z,7.30
2017-06-14T21:14:10.957Z,6.90
2017-06-14T21:16:38.520Z,7.63
2017-06-14T21:19:06.077Z,8.40
2017-06-14T21:21:33.533Z,9.63
2017-06-14T21:24:01.089Z,5.70
2017-06-14T21:26:28.657Z,7.20
2017-06-14T21:28:56.105Z,7.00
2017-06-14T21:31:23.557Z,7.90
2017-06-14T21:33:51.081Z,7.40
2017-06-14T21:36:18.545Z,9.10
2017-06-14T21:38:46.004Z,6.80
2017-06-14T21:41:13.495Z,7.00
2017-06-14T21:43:40.948Z,6.40
2017-06-14T21:46:08.392Z,6.43
2017-06-14T21:48:35.859Z,6.57
2017-06-14T21:51:03.328Z,7.17
2017-06-14T21:53:30.880Z,6.67
2017-06-14T21:55:58.329Z,6.57
2017-06-14T21:58:25.778Z,6.70
2017-06-14T22:00:53.240Z,6.83
2017-06-14T22:03:20.700Z,6.87
2017-06-14T22:05:48.181Z,6.83
2017-06-14T22:08:15.628Z,7.00
2017-06-14T22:10:43.101Z,7.80
2017-06-14T22:13:10.545Z,7.07
2017-06-14T22:15:38.005Z,8.23
2017-06-14T22:18:05.449Z,6.07
2017-06-14T22:20:32.909Z,9.70
2017-06-14T22:23:00.361Z,6.70
2017-06-14T22:25:27.833Z,7.10
2017-06-14T22:27:55.284Z,6.67
2017-06-14T22:30:22.745Z,10.20
2017-06-14T22:32:50.199Z,7.13
2017-06-14T22:35:17.658Z,6.20
2017-06-14T22:37:45.119Z,6.87
2017-06-14T22:40:12.576Z,7.27
2017-06-14T22:42:40.033Z,6.70
2017-06-14T22:45:07.485Z,6.23
2017-06-14T22:47:34.944Z,6.77
2017-06-14T22:50:02.390Z,6.80
2017-06-14T22:52:29.849Z,6.27
2017-06-14T22:54:57.298Z,5.60
2017-06-14T22:57:24.788Z,6.10
2017-06-14T22:59:52.224Z,8.30
2017-06-14T23:02:19.777Z,5.83
2017-06-14T23:04:47.241Z,6.53
2017-06-14T23:07:14.688Z,6.83
2017-06-14T23:09:42.157Z,6.60
2017-06-14T23:12:09.623Z,5.90
2017-06-14T23:14:37.076Z,6.90
2017-06-14T23:17:04.525Z,8.07
2017-06-14T23:19:31.989Z,5.23
2017-06-14T23:21:59.433Z,6.27
2017-06-14T23:24:26.888Z,6.03
2017-06-14T23:26:54.455Z,5.80
2017-06-14T23:29:21.916Z,5.67
2017-06-14T23:31:49.361Z,6.40
2017-06-14T23:34:16.808Z,5.33
2017-06-14T23:36:44.269Z,5.77
2017-06-14T23:39:11.716Z,5.60
2017-06-14T23:41:39.201Z,5.87
2017-06-14T23:44:06.756Z,5.67
2017-06-14T23:46:34.213Z,5.90
2017-06-14T23:49:01.656Z,4.73
2017-06-14T23:51:29.119Z,5.13
2017-06-14T23:53:56.565Z,4.80
2017-06-14T23:56:24.031Z,5.90
2017-06-14T23:58:51.484Z,5.50
